Extrem niedrige Temperatur Gültig von: 20-11-2019 13:59 bis: 21-11-2019 09:00 Warnung für: Extrem niedrige Temperatur Gefahrenstufe: Gelb info button
deutsch:
Es tritt leichter Frost um -1 °C auf. 
Webcam Vorhersage DWD Regenradar Wetterlage NRW Blitze Wind GFS-Modell
webcam


Kleve - Düffelward SSO more information Kleve - Düffelward SSO


Goch more information Goch


Weitere Templates dieser Seite und andere Webseiten:

Meteotemplate

Awekas - Template

weather34 - Template

Wetter im Erzgebirge


te
World Weather Websites
Bo-Rox Wetter Topsites List
 

METAR-Meldungen aus der Umgebung

   
EDLV - Goch
Aktualisierung: 20-11-2019 13:50
Nebel, Teilweise bewölkt  
Nebel, Teilweise bewölkt  
   Wind: variiert 5.6 km/h
Wind: variiert 5.6 km/h
Temperatur: 4°C
Gefühlt: 3°C
Taupunkt: 4°C
Luftfeuchte: 100%
Luftdruck: 1017 hPa
Bewölkt: Teilweise bewölkt
Sichtbarkeit: 4 km
Bewölkung: Teilweise bewölkt
EDLV 201250Z VRB03KT 3700 BR NSC 04/04 Q1017
EDLV - Emmerich
Aktualisierung: 20-11-2019 13:50
Nebel, Teilweise bewölkt  
Nebel, Teilweise bewölkt  
   Wind: variiert 5.6 km/h
Wind: variiert 5.6 km/h
Temperatur: 4°C
Gefühlt: 3°C
Taupunkt: 4°C
Luftfeuchte: 100%
Luftdruck: 1017 hPa
Bewölkt: Teilweise bewölkt
Sichtbarkeit: 4 km
Bewölkung: Teilweise bewölkt
EDLV 201250Z VRB03KT 3700 BR NSC 04/04 Q1017
EHDL - Nijmegen
Aktualisierung: 20-11-2019 13:55
Nebel, Bewölkt  
Nebel, Bewölkt  
   Wind: OSO 9.3 km/h
Wind: OSO 9.3 km/h
Temperatur: 3°C
Gefühlt: 1°C
Taupunkt: 2°C
Luftfeuchte: 93%
Luftdruck: 1017 hPa
Bewölkt: Bewölkt
Sichtbarkeit: 3 km
Bewölkung: Bewölkt 300 ft
EHDL 201255Z AUTO 12005KT 060V180 2700 R20/P3000D BR OVC003 03/02 Q1017 YLO
EHDL - Arnhem
Aktualisierung: 20-11-2019 13:55
Nebel, Bewölkt  
Nebel, Bewölkt  
   Wind: OSO 9.3 km/h
Wind: OSO 9.3 km/h
Temperatur: 3°C
Gefühlt: 1°C
Taupunkt: 2°C
Luftfeuchte: 93%
Luftdruck: 1017 hPa
Bewölkt: Bewölkt
Sichtbarkeit: 3 km
Bewölkung: Bewölkt 300 ft
EHDL 201255Z AUTO 12005KT 060V180 2700 R20/P3000D BR OVC003 03/02 Q1017 YLO
EDLV - Kalkar
Aktualisierung: 20-11-2019 13:50
Nebel, Teilweise bewölkt  
Nebel, Teilweise bewölkt  
   Wind: variiert 5.6 km/h
Wind: variiert 5.6 km/h
Temperatur: 4°C
Gefühlt: 3°C
Taupunkt: 4°C
Luftfeuchte: 100%
Luftdruck: 1017 hPa
Bewölkt: Teilweise bewölkt
Sichtbarkeit: 4 km
Bewölkung: Teilweise bewölkt
EDLV 201250Z VRB03KT 3700 BR NSC 04/04 Q1017
 

Script entwickelt von  Saratoga-weather.org Angepasst für das Template von  Weerstation Leuven

Sie finden Wetter-Infos dieser Station auch auf:

UK Metoffice

European Weather Network

WeatherCloud

Weather Underground

Germany Weather Network

AWEKAS

Neuwetter

Wettersektor

Von uns verwendete Ausrüstung:

Wetterstation
Davis Vantage Pro2

Wetterprogramm
Meteobridge

WetterComputer
Computer

Davis Vantage Pro2

Meteobridge

Computer